createdAt,value
2019-06-26T00:01:23.291Z,79.30
2019-06-26T00:05:27.557Z,79.50
2019-06-26T00:09:31.787Z,79.50
2019-06-26T00:13:36.009Z,79.40
2019-06-26T00:17:44.768Z,79.30
2019-06-26T00:21:48.964Z,79.30
2019-06-26T00:25:53.204Z,79.20
2019-06-26T00:29:57.427Z,79.00
2019-06-26T00:34:01.635Z,79.30
2019-06-26T00:38:05.878Z,79.30
2019-06-26T00:42:10.107Z,79.50
2019-06-26T00:46:14.326Z,79.40
2019-06-26T00:50:18.649Z,79.50
2019-06-26T00:54:22.858Z,79.20
2019-06-26T00:58:27.086Z,79.00
2019-06-26T01:02:31.439Z,79.50
2019-06-26T01:06:44.491Z,79.60
2019-06-26T01:10:48.723Z,79.50
2019-06-26T01:14:52.926Z,79.50
2019-06-26T01:18:57.178Z,79.80
2019-06-26T01:23:01.452Z,79.50
2019-06-26T01:27:18.128Z,79.50
2019-06-26T01:31:22.364Z,79.90
2019-06-26T01:35:26.592Z,80.00
2019-06-26T01:39:30.803Z,80.00
2019-06-26T01:43:35.046Z,79.80
2019-06-26T01:47:39.262Z,79.80
2019-06-26T01:51:43.520Z,79.80
2019-06-26T01:55:47.759Z,79.80
2019-06-26T01:59:51.948Z,79.90
2019-06-26T02:03:56.171Z,79.90
2019-06-26T02:08:00.420Z,80.00
2019-06-26T02:12:04.654Z,80.00
2019-06-26T02:16:08.914Z,80.00
2019-06-26T02:20:13.182Z,80.20
2019-06-26T02:24:17.452Z,80.20
2019-06-26T02:28:21.688Z,80.10
2019-06-26T02:32:25.928Z,80.60
2019-06-26T02:36:30.149Z,80.70
2019-06-26T02:40:34.343Z,80.80
2019-06-26T02:44:51.953Z,80.60
2019-06-26T02:48:44.457Z,80.70
2019-06-26T02:52:48.685Z,80.50
2019-06-26T02:56:52.921Z,80.70
2019-06-26T03:00:57.148Z,81.10
2019-06-26T03:05:01.397Z,81.00
2019-06-26T03:09:07.473Z,80.90
2019-06-26T03:13:11.723Z,81.30
2019-06-26T03:17:19.473Z,81.00
2019-06-26T03:21:23.717Z,81.20
2019-06-26T03:25:27.971Z,81.10
2019-06-26T03:29:32.269Z,80.90
2019-06-26T03:33:36.452Z,81.10
2019-06-26T03:37:40.649Z,81.50
2019-06-26T03:41:44.886Z,81.40
2019-06-26T03:45:49.100Z,81.60
2019-06-26T03:49:53.327Z,81.50
2019-06-26T03:53:57.559Z,81.30
2019-06-26T03:58:01.796Z,81.30
2019-06-26T04:02:06.015Z,82.20
2019-06-26T04:06:10.203Z,82.10
2019-06-26T04:10:14.431Z,82.30
2019-06-26T04:14:18.670Z,82.10
2019-06-26T04:18:22.915Z,82.00
2019-06-26T04:22:27.146Z,82.00
2019-06-26T04:26:31.356Z,82.10
2019-06-26T04:30:35.602Z,81.90
2019-06-26T04:34:39.904Z,82.50
2019-06-26T04:38:44.135Z,82.50
2019-06-26T04:42:48.436Z,82.90
2019-06-26T04:46:52.629Z,83.20
2019-06-26T04:50:56.939Z,83.30
2019-06-26T04:55:01.188Z,83.70
2019-06-26T04:59:05.535Z,84.80
2019-06-26T05:03:09.926Z,84.70
2019-06-26T05:07:14.118Z,85.00
2019-06-26T05:11:18.350Z,86.60
2019-06-26T05:15:22.571Z,85.70
2019-06-26T05:19:26.834Z,86.80
2019-06-26T05:23:31.059Z,87.10
2019-06-26T05:27:35.278Z,87.70
2019-06-26T05:31:39.583Z,87.60
2019-06-26T05:35:43.906Z,87.10
2019-06-26T05:39:48.175Z,86.50
2019-06-26T05:43:52.462Z,86.70
2019-06-26T05:47:56.680Z,87.30
2019-06-26T05:52:02.186Z,87.60
2019-06-26T05:56:06.617Z,88.10
2019-06-26T06:00:11.558Z,88.60
2019-06-26T06:04:15.782Z,87.90
2019-06-26T06:08:20.023Z,87.50
2019-06-26T06:12:24.544Z,88.30
2019-06-26T06:16:28.794Z,88.40
2019-06-26T06:20:38.018Z,87.90
2019-06-26T06:24:42.260Z,87.90
2019-06-26T06:28:46.501Z,87.60
2019-06-26T06:32:50.700Z,87.70
2019-06-26T06:36:54.931Z,87.90
2019-06-26T06:40:59.152Z,87.60
2019-06-26T06:45:03.584Z,87.60
2019-06-26T06:49:07.818Z,87.50
2019-06-26T06:53:12.039Z,87.70
2019-06-26T06:57:16.395Z,87.90
2019-06-26T07:01:20.616Z,87.80
2019-06-26T07:05:24.840Z,88.00
2019-06-26T07:09:29.076Z,88.10
2019-06-26T07:13:33.412Z,88.50
2019-06-26T07:17:37.664Z,88.10
2019-06-26T07:21:41.883Z,88.00
2019-06-26T07:25:46.114Z,88.80
2019-06-26T07:29:50.466Z,88.60
2019-06-26T07:33:55.637Z,88.50
2019-06-26T07:38:00.513Z,88.40
2019-06-26T07:42:04.856Z,88.90
2019-06-26T07:46:09.080Z,88.40
2019-06-26T07:50:13.624Z,88.80
2019-06-26T07:54:17.995Z,88.90
2019-06-26T07:58:22.192Z,89.40
2019-06-26T08:02:26.411Z,89.40
2019-06-26T08:06:30.622Z,89.50
2019-06-26T08:10:34.869Z,90.00
2019-06-26T08:14:39.109Z,89.70
2019-06-26T08:18:43.351Z,90.10
2019-06-26T08:22:47.575Z,90.10
2019-06-26T08:26:52.008Z,90.00
2019-06-26T08:30:56.234Z,90.10
2019-06-26T08:35:02.158Z,90.20
2019-06-26T08:39:07.518Z,90.20
2019-06-26T08:43:11.741Z,90.20
2019-06-26T08:47:15.959Z,90.10
2019-06-26T08:51:20.635Z,90.20
2019-06-26T08:55:24.865Z,90.20
2019-06-26T08:59:29.079Z,90.30
2019-06-26T09:03:33.324Z,90.20
2019-06-26T09:07:37.667Z,90.10
2019-06-26T09:11:41.960Z,90.10
2019-06-26T09:15:49.537Z,90.00
2019-06-26T09:19:52.152Z,90.00
2019-06-26T09:23:56.357Z,90.00
2019-06-26T09:28:00.600Z,90.00
2019-06-26T09:32:04.824Z,90.00
2019-06-26T09:36:09.115Z,90.40
2019-06-26T09:40:13.540Z,90.00
2019-06-26T09:44:17.767Z,90.00
2019-06-26T09:48:22.224Z,89.90
2019-06-26T09:52:26.527Z,89.70
2019-06-26T09:56:30.755Z,89.80
2019-06-26T10:00:35.135Z,89.60
2019-06-26T10:04:39.348Z,88.80
2019-06-26T10:08:43.597Z,89.20
2019-06-26T10:12:47.794Z,88.90
2019-06-26T10:16:52.036Z,89.10
2019-06-26T10:20:56.254Z,88.90
2019-06-26T10:25:00.769Z,88.60
2019-06-26T10:29:05.093Z,88.90
2019-06-26T10:33:09.314Z,87.50
2019-06-26T10:37:13.542Z,87.80
2019-06-26T10:41:17.855Z,87.40
2019-06-26T10:45:22.248Z,86.90
2019-06-26T10:49:27.839Z,86.70
2019-06-26T10:53:32.331Z,85.80
2019-06-26T10:57:36.611Z,85.60
2019-06-26T11:01:40.845Z,86.60
2019-06-26T11:05:45.047Z,86.40
2019-06-26T11:10:05.438Z,85.50
2019-06-26T11:14:09.668Z,85.60
2019-06-26T11:18:13.911Z,84.00
2019-06-26T11:22:18.127Z,84.70
2019-06-26T11:26:22.364Z,84.30
2019-06-26T11:30:26.958Z,84.40
2019-06-26T11:34:31.198Z,84.40
2019-06-26T11:38:35.428Z,83.40
2019-06-26T11:42:39.659Z,84.30
2019-06-26T11:46:43.868Z,83.90
2019-06-26T11:50:48.068Z,83.30
2019-06-26T11:55:01.751Z,83.10
2019-06-26T11:58:58.228Z,84.40
2019-06-26T12:03:02.451Z,83.70
2019-06-26T12:07:06.775Z,83.30
2019-06-26T12:11:10.974Z,83.50
2019-06-26T12:15:15.746Z,81.60
2019-06-26T12:19:23.297Z,82.40
2019-06-26T12:23:25.867Z,80.50
2019-06-26T12:27:30.108Z,82.00
2019-06-26T12:31:34.306Z,81.40
2019-06-26T12:35:38.502Z,80.70
2019-06-26T12:39:42.723Z,81.10
2019-06-26T12:43:46.951Z,80.30
2019-06-26T12:47:51.166Z,79.60
2019-06-26T12:51:55.351Z,79.40
2019-06-26T12:55:59.577Z,78.20
2019-06-26T13:00:04.824Z,79.50
2019-06-26T13:04:09.031Z,79.50
2019-06-26T13:08:13.287Z,80.50
2019-06-26T13:12:17.479Z,79.30
2019-06-26T13:16:21.676Z,79.90
2019-06-26T13:20:25.929Z,79.90
2019-06-26T13:24:30.139Z,80.60
2019-06-26T13:28:34.368Z,80.60
2019-06-26T13:32:38.590Z,79.40
2019-06-26T13:36:42.771Z,78.20
2019-06-26T13:40:47.011Z,78.50
2019-06-26T13:44:51.238Z,76.90
2019-06-26T13:48:55.447Z,77.20
2019-06-26T13:52:59.659Z,77.10
2019-06-26T13:57:03.867Z,77.30
2019-06-26T14:01:08.086Z,76.70
2019-06-26T14:05:12.667Z,76.60
2019-06-26T14:09:16.882Z,76.50
2019-06-26T14:13:23.090Z,76.00
2019-06-26T14:17:27.110Z,76.20
2019-06-26T14:21:32.223Z,76.00
2019-06-26T14:25:37.174Z,75.90
2019-06-26T14:29:41.396Z,76.00
2019-06-26T14:33:45.623Z,75.80
2019-06-26T14:37:49.906Z,75.50
2019-06-26T14:41:54.164Z,76.00
2019-06-26T14:45:58.371Z,75.20
2019-06-26T14:50:02.611Z,75.60
2019-06-26T14:54:06.862Z,75.30
2019-06-26T14:58:11.126Z,75.20
2019-06-26T15:02:15.658Z,75.30
2019-06-26T15:06:19.859Z,74.80
2019-06-26T15:10:24.083Z,75.00
2019-06-26T15:14:28.307Z,75.00
2019-06-26T15:18:32.606Z,74.60
2019-06-26T15:22:36.883Z,74.70
2019-06-26T15:26:41.183Z,75.50
2019-06-26T15:30:45.411Z,75.30
2019-06-26T15:34:49.644Z,75.50
2019-06-26T15:38:53.868Z,75.90
2019-06-26T15:42:58.077Z,75.50
2019-06-26T15:47:02.327Z,76.10
2019-06-26T15:51:08.231Z,75.80
2019-06-26T15:55:12.435Z,76.30
2019-06-26T15:59:16.683Z,76.70
2019-06-26T16:03:20.914Z,77.00
2019-06-26T16:07:25.187Z,77.20
2019-06-26T16:11:29.427Z,77.40
2019-06-26T16:15:34.235Z,77.50
2019-06-26T16:19:38.521Z,77.30
2019-06-26T16:23:42.736Z,76.20
2019-06-26T16:27:46.969Z,75.70
2019-06-26T16:31:51.320Z,75.50
2019-06-26T16:35:55.655Z,74.80
2019-06-26T16:40:01.389Z,75.30
2019-06-26T16:44:06.780Z,74.70
2019-06-26T16:48:11.012Z,74.60
2019-06-26T16:52:16.613Z,73.20
2019-06-26T16:56:23.636Z,71.70
2019-06-26T17:00:27.882Z,72.50
2019-06-26T17:04:32.154Z,72.40
2019-06-26T17:08:39.499Z,72.20
2019-06-26T17:12:43.780Z,72.20
2019-06-26T17:16:48.122Z,72.50
2019-06-26T17:20:52.399Z,72.90
2019-06-26T17:24:56.764Z,73.00
2019-06-26T17:29:01.192Z,73.00
2019-06-26T17:33:05.452Z,73.00
2019-06-26T17:37:09.735Z,72.60
2019-06-26T17:41:13.981Z,73.00
2019-06-26T17:45:18.428Z,73.00
2019-06-26T17:49:22.643Z,73.10
2019-06-26T17:53:26.934Z,73.00
2019-06-26T17:57:31.253Z,73.10
2019-06-26T18:01:35.604Z,73.20
2019-06-26T18:05:39.955Z,73.20
2019-06-26T18:09:44.326Z,73.40
2019-06-26T18:13:48.600Z,73.60
2019-06-26T18:17:52.956Z,73.70
2019-06-26T18:21:57.221Z,73.90
2019-06-26T18:26:12.256Z,73.90
2019-06-26T18:30:09.262Z,74.10
2019-06-26T18:34:13.511Z,74.40
2019-06-26T18:38:18.174Z,74.30
2019-06-26T18:42:22.742Z,74.40
2019-06-26T18:46:27.007Z,74.90
2019-06-26T18:50:31.240Z,74.80
2019-06-26T18:54:35.471Z,74.90
2019-06-26T18:58:39.742Z,75.30
2019-06-26T19:02:44.068Z,75.30
2019-06-26T19:06:48.342Z,75.50
2019-06-26T19:10:52.732Z,75.50
2019-06-26T19:14:56.957Z,75.20
2019-06-26T19:19:01.242Z,75.40
2019-06-26T19:23:05.501Z,75.90
2019-06-26T19:27:09.745Z,75.80
2019-06-26T19:31:14.007Z,75.90
2019-06-26T19:35:19.438Z,75.80
2019-06-26T19:39:24.135Z,75.70
2019-06-26T19:43:28.692Z,76.30
2019-06-26T19:47:32.893Z,77.30
2019-06-26T19:51:37.149Z,76.60
2019-06-26T19:55:41.368Z,76.20
2019-06-26T19:59:45.633Z,76.50
2019-06-26T20:03:49.936Z,76.90
2019-06-26T20:07:54.305Z,76.50
2019-06-26T20:11:58.549Z,77.60
2019-06-26T20:16:02.779Z,76.70
2019-06-26T20:20:07.321Z,77.40
2019-06-26T20:24:11.559Z,76.60
2019-06-26T20:28:15.820Z,76.90
2019-06-26T20:32:20.065Z,77.00
2019-06-26T20:36:24.682Z,77.20
2019-06-26T20:40:29.577Z,77.40
2019-06-26T20:44:33.857Z,77.30
2019-06-26T20:48:38.104Z,78.10
2019-06-26T20:52:42.340Z,77.80
2019-06-26T20:56:46.647Z,77.70
2019-06-26T21:00:50.904Z,77.90
2019-06-26T21:04:55.127Z,78.00
2019-06-26T21:08:59.374Z,78.30
2019-06-26T21:13:03.681Z,78.30
2019-06-26T21:17:07.938Z,78.30
2019-06-26T21:21:12.187Z,78.30
2019-06-26T21:25:25.484Z,77.90
2019-06-26T21:29:29.739Z,78.20
2019-06-26T21:33:34.082Z,78.10
2019-06-26T21:37:38.828Z,78.90
2019-06-26T21:41:43.037Z,78.60
2019-06-26T21:45:47.337Z,78.40
2019-06-26T21:50:10.858Z,78.20
2019-06-26T21:54:15.185Z,78.40
2019-06-26T21:58:19.443Z,78.10
2019-06-26T22:02:23.652Z,77.70
2019-06-26T22:06:27.948Z,77.70
2019-06-26T22:10:32.525Z,77.70
2019-06-26T22:14:37.358Z,77.80
2019-06-26T22:18:42.748Z,78.20
2019-06-26T22:22:46.963Z,78.40
2019-06-26T22:26:51.318Z,78.00
2019-06-26T22:30:55.558Z,78.70
2019-06-26T22:34:59.785Z,79.20
2019-06-26T22:39:04.684Z,79.50
2019-06-26T22:43:08.916Z,79.00
2019-06-26T22:47:13.113Z,79.40
2019-06-26T22:51:17.341Z,79.50
2019-06-26T22:55:21.643Z,79.60
2019-06-26T22:59:25.871Z,80.30
2019-06-26T23:03:30.099Z,79.90
2019-06-26T23:07:34.308Z,79.50
2019-06-26T23:11:38.549Z,79.70
2019-06-26T23:15:42.769Z,79.90
2019-06-26T23:19:47.023Z,79.90
2019-06-26T23:23:51.243Z,80.90
2019-06-26T23:27:56.530Z,81.40
2019-06-26T23:32:03.245Z,80.90
2019-06-26T23:36:06.706Z,80.60
2019-06-26T23:40:12.076Z,81.70
2019-06-26T23:44:16.297Z,81.60
2019-06-26T23:48:20.506Z,80.90
2019-06-26T23:52:24.744Z,81.60
2019-06-26T23:56:40.001Z,81.40
